Aeroporto :
LOGIN :

Iscrizione | Disclaimer

   EN    FR    IT 

 










Sommario :    VFR   VFR Marginale   IFR   IFR Intensivo   IFR Molto Intensivo
Visibilità : 
Base nubi : 
>= 8 km
>= 3000ft
5 / 8 km
1000 / 3000 ft
1500m / 5 km
500 / 1000 ft
800 / 1500m
200 / 500 ft
< 800m
< 200 ft
Simboli :   Temporali  Nebbia  Neve Forte  Precipitazioni Forti  Vento > 20 kt
SIGMETs :   Varie  Temporali  Ghiacco  Turbolenza  Onda orograficha  Ceneri Vulcaniche






- Altitudine del aeroporto : 1496 ft
- Codice IATA : SBZ


LRSB - Sibiu

ULTIMO METAR :
  • 021130Z 29003KT 250V310 5000 BR FEW004 BKN005 M05/M06 Q1021 R27/450394

METARs OBSOLETI :
  • 021100Z 27003KT 220V290 4000 BR FEW004 BKN005 M05/M06 Q1021 R27/450394
  • 021030Z VRB01KT 4000 BR BKN004 SCT005 M05/M06 Q1021 R27/450394
  • 021000Z VRB01KT 3000 BR BKN004 SCT005 M05/M06 Q1022 R27/450394
  • 020930Z 30003KT 3000 BR FEW004 SCT005 M06/M07 Q1022 R27/450394
  • 020900Z VRB02KT 3000 BR FEW004 SCT007 M06/M07 Q1023 R27/450394

TAF TAF LRSB
Valido dal 02 a 12 ore il 03 a 12 ore UTC


021100Z 0212/0312 VRB04KT 5000 BR BKN005
TEMPO 0212/0217 9999 NSW SCT020
BECMG 0219/0221 1500 BR BKN002
TEMPO 0223/0306 0600 FZFG VV001
BECMG 0306/0308 5000 BKN010



MetMap, La meteo Aeronautica in un colpo d'occhio ! - Copyright ORBIFLY Dicembre 2007 - Disclaimer

ORBIFLY MET'MAP TEAM :

Programmazione e sviluppo : Alexandra Zaïnal
Concezione : Baudouin d'Aumeries
Aiuto per la programmazione : Marc-Olivier Méhu
Supporto tecnico e logistico : Manuel Goepfert
Aiuto per la traduzione : Arnaldo La Scala

Contatto : metmap@orbifly.com




FONTI E CREDITI :

   NOAA